sensor_id;sensor_type;location;lat;lon;timestamp;P1;durP1;ratioP1;P2;durP2;ratioP2
43114;SDS011;28727;50.068;14.452;2023-08-17T00:00:36;12.88;;;10.40;;
43114;SDS011;28727;50.068;14.452;2023-08-17T00:03:08;13.75;;;10.15;;
43114;SDS011;28727;50.068;14.452;2023-08-17T00:05:41;12.52;;;10.80;;
43114;SDS011;28727;50.068;14.452;2023-08-17T00:08:13;13.73;;;10.20;;
43114;SDS011;28727;50.068;14.452;2023-08-17T00:10:45;11.23;;;9.45;;
43114;SDS011;28727;50.068;14.452;2023-08-17T00:13:17;12.23;;;10.60;;
43114;SDS011;28727;50.068;14.452;2023-08-17T00:15:49;13.40;;;10.43;;
43114;SDS011;28727;50.068;14.452;2023-08-17T00:18:21;12.02;;;10.63;;
43114;SDS011;28727;50.068;14.452;2023-08-17T00:20:52;16.13;;;10.63;;
43114;SDS011;28727;50.068;14.452;2023-08-17T00:23:24;14.43;;;10.90;;
43114;SDS011;28727;50.068;14.452;2023-08-17T00:25:56;12.73;;;11.07;;
43114;SDS011;28727;50.068;14.452;2023-08-17T00:28:28;13.90;;;11.50;;
43114;SDS011;28727;50.068;14.452;2023-08-17T00:31:01;15.52;;;11.40;;
43114;SDS011;28727;50.068;14.452;2023-08-17T00:33:33;14.13;;;11.00;;
43114;SDS011;28727;50.068;14.452;2023-08-17T00:36:05;12.27;;;10.20;;
43114;SDS011;28727;50.068;14.452;2023-08-17T00:38:39;13.60;;;10.40;;
43114;SDS011;28727;50.068;14.452;2023-08-17T00:41:14;13.63;;;10.90;;
43114;SDS011;28727;50.068;14.452;2023-08-17T00:43:45;13.88;;;11.43;;
43114;SDS011;28727;50.068;14.452;2023-08-17T00:46:17;12.07;;;10.65;;
43114;SDS011;28727;50.068;14.452;2023-08-17T00:48:54;12.07;;;10.88;;
43114;SDS011;28727;50.068;14.452;2023-08-17T00:51:29;12.82;;;11.52;;
43114;SDS011;28727;50.068;14.452;2023-08-17T00:54:02;15.07;;;10.50;;
43114;SDS011;28727;50.068;14.452;2023-08-17T00:56:35;13.02;;;11.20;;
43114;SDS011;28727;50.068;14.452;2023-08-17T00:59:07;13.55;;;10.85;;
43114;SDS011;28727;50.068;14.452;2023-08-17T01:01:40;11.63;;;9.88;;
43114;SDS011;28727;50.068;14.452;2023-08-17T01:04:12;13.05;;;10.82;;
43114;SDS011;28727;50.068;14.452;2023-08-17T01:06:44;15.55;;;11.05;;
43114;SDS011;28727;50.068;14.452;2023-08-17T01:09:19;14.55;;;11.27;;
43114;SDS011;28727;50.068;14.452;2023-08-17T01:12:05;14.65;;;10.32;;
43114;SDS011;28727;50.068;14.452;2023-08-17T01:15:07;13.93;;;11.57;;
43114;SDS011;28727;50.068;14.452;2023-08-17T01:18:00;17.08;;;10.85;;
43114;SDS011;28727;50.068;14.452;2023-08-17T01:20:36;13.00;;;10.93;;
43114;SDS011;28727;50.068;14.452;2023-08-17T01:23:09;16.05;;;11.13;;
43114;SDS011;28727;50.068;14.452;2023-08-17T01:25:41;12.55;;;11.25;;
43114;SDS011;28727;50.068;14.452;2023-08-17T01:28:13;16.27;;;11.38;;
43114;SDS011;28727;50.068;14.452;2023-08-17T01:33:37;12.95;;;10.32;;
43114;SDS011;28727;50.068;14.452;2023-08-17T01:36:36;12.82;;;11.00;;
43114;SDS011;28727;50.068;14.452;2023-08-17T01:39:11;13.80;;;10.85;;
43114;SDS011;28727;50.068;14.452;2023-08-17T01:41:44;16.98;;;12.82;;
43114;SDS011;28727;50.068;14.452;2023-08-17T01:46:50;13.88;;;11.48;;
43114;SDS011;28727;50.068;14.452;2023-08-17T01:49:26;14.68;;;10.25;;
43114;SDS011;28727;50.068;14.452;2023-08-17T01:51:58;12.82;;;11.50;;
43114;SDS011;28727;50.068;14.452;2023-08-17T01:54:34;14.15;;;11.50;;
43114;SDS011;28727;50.068;14.452;2023-08-17T01:57:05;14.25;;;11.60;;
43114;SDS011;28727;50.068;14.452;2023-08-17T01:59:43;11.57;;;10.38;;
43114;SDS011;28727;50.068;14.452;2023-08-17T02:02:17;14.90;;;11.27;;
43114;SDS011;28727;50.068;14.452;2023-08-17T02:04:49;13.32;;;11.27;;
43114;SDS011;28727;50.068;14.452;2023-08-17T02:07:22;15.30;;;11.90;;
43114;SDS011;28727;50.068;14.452;2023-08-17T02:09:54;13.90;;;11.65;;
43114;SDS011;28727;50.068;14.452;2023-08-17T02:12:26;14.77;;;11.77;;
43114;SDS011;28727;50.068;14.452;2023-08-17T02:14:58;13.10;;;10.90;;
43114;SDS011;28727;50.068;14.452;2023-08-17T02:17:30;13.48;;;11.80;;
43114;SDS011;28727;50.068;14.452;2023-08-17T02:20:03;17.75;;;12.00;;
43114;SDS011;28727;50.068;14.452;2023-08-17T02:22:38;13.55;;;11.70;;
43114;SDS011;28727;50.068;14.452;2023-08-17T02:25:17;13.88;;;11.73;;
43114;SDS011;28727;50.068;14.452;2023-08-17T02:27:51;12.90;;;11.60;;
43114;SDS011;28727;50.068;14.452;2023-08-17T02:30:23;13.07;;;11.70;;
43114;SDS011;28727;50.068;14.452;2023-08-17T02:32:56;13.95;;;10.77;;
43114;SDS011;28727;50.068;14.452;2023-08-17T02:35:28;14.70;;;11.75;;
43114;SDS011;28727;50.068;14.452;2023-08-17T02:38:00;13.35;;;11.18;;
43114;SDS011;28727;50.068;14.452;2023-08-17T02:40:31;14.02;;;11.30;;
43114;SDS011;28727;50.068;14.452;2023-08-17T02:43:03;15.57;;;11.55;;
43114;SDS011;28727;50.068;14.452;2023-08-17T02:45:35;12.27;;;10.82;;
43114;SDS011;28727;50.068;14.452;2023-08-17T02:48:08;15.07;;;11.25;;
43114;SDS011;28727;50.068;14.452;2023-08-17T02:50:40;16.17;;;11.30;;
43114;SDS011;28727;50.068;14.452;2023-08-17T02:53:14;12.18;;;10.88;;
43114;SDS011;28727;50.068;14.452;2023-08-17T02:55:46;11.63;;;10.05;;
43114;SDS011;28727;50.068;14.452;2023-08-17T02:58:21;13.40;;;11.70;;
43114;SDS011;28727;50.068;14.452;2023-08-17T03:00:52;11.85;;;10.48;;
43114;SDS011;28727;50.068;14.452;2023-08-17T03:03:25;12.75;;;10.48;;
43114;SDS011;28727;50.068;14.452;2023-08-17T03:05:57;14.52;;;10.65;;
43114;SDS011;28727;50.068;14.452;2023-08-17T03:08:30;12.02;;;10.70;;
43114;SDS011;28727;50.068;14.452;2023-08-17T03:11:01;13.38;;;11.57;;
43114;SDS011;28727;50.068;14.452;2023-08-17T03:13:36;13.75;;;10.88;;
43114;SDS011;28727;50.068;14.452;2023-08-17T03:16:08;13.68;;;10.98;;
43114;SDS011;28727;50.068;14.452;2023-08-17T03:18:41;13.35;;;11.30;;
43114;SDS011;28727;50.068;14.452;2023-08-17T03:21:16;15.20;;;11.80;;
43114;SDS011;28727;50.068;14.452;2023-08-17T03:26:24;14.60;;;11.93;;
43114;SDS011;28727;50.068;14.452;2023-08-17T03:28:56;14.15;;;11.88;;
43114;SDS011;28727;50.068;14.452;2023-08-17T03:31:29;13.65;;;10.07;;
43114;SDS011;28727;50.068;14.452;2023-08-17T03:34:01;11.70;;;10.32;;
43114;SDS011;28727;50.068;14.452;2023-08-17T03:36:34;12.60;;;11.23;;
43114;SDS011;28727;50.068;14.452;2023-08-17T03:39:06;13.70;;;10.75;;
43114;SDS011;28727;50.068;14.452;2023-08-17T03:41:39;13.65;;;11.30;;
43114;SDS011;28727;50.068;14.452;2023-08-17T03:44:10;12.45;;;11.15;;
43114;SDS011;28727;50.068;14.452;2023-08-17T03:46:42;13.27;;;11.50;;
43114;SDS011;28727;50.068;14.452;2023-08-17T03:49:14;13.35;;;10.65;;
43114;SDS011;28727;50.068;14.452;2023-08-17T03:51:49;13.13;;;11.35;;
43114;SDS011;28727;50.068;14.452;2023-08-17T03:54:21;12.70;;;11.40;;
43114;SDS011;28727;50.068;14.452;2023-08-17T03:56:53;14.73;;;10.88;;
43114;SDS011;28727;50.068;14.452;2023-08-17T03:59:25;13.50;;;10.90;;
43114;SDS011;28727;50.068;14.452;2023-08-17T04:01:57;13.77;;;11.30;;
43114;SDS011;28727;50.068;14.452;2023-08-17T04:04:32;12.48;;;11.15;;
43114;SDS011;28727;50.068;14.452;2023-08-17T04:07:04;14.07;;;11.02;;
43114;SDS011;28727;50.068;14.452;2023-08-17T04:12:14;13.20;;;10.85;;
43114;SDS011;28727;50.068;14.452;2023-08-17T04:14:46;12.77;;;10.95;;
43114;SDS011;28727;50.068;14.452;2023-08-17T04:17:18;12.95;;;10.90;;
43114;SDS011;28727;50.068;14.452;2023-08-17T04:19:53;17.38;;;11.02;;
43114;SDS011;28727;50.068;14.452;2023-08-17T04:22:26;13.85;;;11.27;;
43114;SDS011;28727;50.068;14.452;2023-08-17T04:24:58;15.98;;;11.75;;
43114;SDS011;28727;50.068;14.452;2023-08-17T04:27:30;12.38;;;11.07;;
43114;SDS011;28727;50.068;14.452;2023-08-17T04:30:02;14.02;;;11.57;;
43114;SDS011;28727;50.068;14.452;2023-08-17T04:32:42;13.68;;;11.27;;
43114;SDS011;28727;50.068;14.452;2023-08-17T04:35:14;14.80;;;12.55;;
43114;SDS011;28727;50.068;14.452;2023-08-17T04:37:46;15.95;;;12.38;;
43114;SDS011;28727;50.068;14.452;2023-08-17T04:40:21;18.83;;;13.18;;
43114;SDS011;28727;50.068;14.452;2023-08-17T04:42:53;14.93;;;11.82;;
43114;SDS011;28727;50.068;14.452;2023-08-17T04:45:26;14.25;;;12.13;;
43114;SDS011;28727;50.068;14.452;2023-08-17T04:48:00;15.35;;;12.00;;
43114;SDS011;28727;50.068;14.452;2023-08-17T04:50:34;14.55;;;11.38;;
43114;SDS011;28727;50.068;14.452;2023-08-17T04:53:05;12.95;;;11.07;;
43114;SDS011;28727;50.068;14.452;2023-08-17T04:55:38;13.35;;;11.60;;
43114;SDS011;28727;50.068;14.452;2023-08-17T04:58:10;14.95;;;11.45;;
43114;SDS011;28727;50.068;14.452;2023-08-17T05:00:46;13.85;;;11.57;;
43114;SDS011;28727;50.068;14.452;2023-08-17T05:03:19;13.65;;;11.88;;
43114;SDS011;28727;50.068;14.452;2023-08-17T05:06:04;14.85;;;11.65;;
43114;SDS011;28727;50.068;14.452;2023-08-17T05:08:37;13.27;;;11.73;;
43114;SDS011;28727;50.068;14.452;2023-08-17T05:11:09;13.45;;;11.90;;
43114;SDS011;28727;50.068;14.452;2023-08-17T05:13:40;16.80;;;12.70;;
43114;SDS011;28727;50.068;14.452;2023-08-17T05:16:13;14.35;;;12.70;;
43114;SDS011;28727;50.068;14.452;2023-08-17T05:18:47;13.27;;;11.27;;
43114;SDS011;28727;50.068;14.452;2023-08-17T05:21:20;12.75;;;10.77;;
43114;SDS011;28727;50.068;14.452;2023-08-17T05:23:53;13.32;;;11.02;;
43114;SDS011;28727;50.068;14.452;2023-08-17T05:26:28;15.57;;;10.95;;
43114;SDS011;28727;50.068;14.452;2023-08-17T05:28:59;13.95;;;10.30;;
43114;SDS011;28727;50.068;14.452;2023-08-17T05:31:31;12.30;;;11.05;;
43114;SDS011;28727;50.068;14.452;2023-08-17T05:34:03;12.02;;;10.73;;
43114;SDS011;28727;50.068;14.452;2023-08-17T05:36:37;13.07;;;10.50;;
43114;SDS011;28727;50.068;14.452;2023-08-17T05:39:10;15.83;;;11.07;;
43114;SDS011;28727;50.068;14.452;2023-08-17T05:41:43;12.52;;;10.30;;
43114;SDS011;28727;50.068;14.452;2023-08-17T05:44:14;12.95;;;9.32;;
43114;SDS011;28727;50.068;14.452;2023-08-17T05:46:49;11.85;;;10.65;;
43114;SDS011;28727;50.068;14.452;2023-08-17T05:49:21;14.40;;;10.52;;
43114;SDS011;28727;50.068;14.452;2023-08-17T05:51:56;13.75;;;10.98;;
43114;SDS011;28727;50.068;14.452;2023-08-17T05:54:28;14.27;;;11.50;;
43114;SDS011;28727;50.068;14.452;2023-08-17T05:57:00;11.40;;;9.95;;
43114;SDS011;28727;50.068;14.452;2023-08-17T05:59:33;12.07;;;9.93;;
43114;SDS011;28727;50.068;14.452;2023-08-17T06:02:05;14.25;;;10.05;;
43114;SDS011;28727;50.068;14.452;2023-08-17T06:04:37;18.92;;;11.30;;
43114;SDS011;28727;50.068;14.452;2023-08-17T06:07:09;15.75;;;12.10;;
43114;SDS011;28727;50.068;14.452;2023-08-17T06:09:41;13.82;;;11.23;;
43114;SDS011;28727;50.068;14.452;2023-08-17T06:12:12;16.13;;;12.07;;
43114;SDS011;28727;50.068;14.452;2023-08-17T06:14:44;10.50;;;6.90;;
43114;SDS011;28727;50.068;14.452;2023-08-17T06:17:16;11.60;;;10.27;;
43114;SDS011;28727;50.068;14.452;2023-08-17T06:19:48;13.30;;;10.27;;
43114;SDS011;28727;50.068;14.452;2023-08-17T06:22:20;14.48;;;11.02;;
43114;SDS011;28727;50.068;14.452;2023-08-17T06:24:54;13.77;;;10.88;;
43114;SDS011;28727;50.068;14.452;2023-08-17T06:27:26;14.73;;;11.18;;
43114;SDS011;28727;50.068;14.452;2023-08-17T06:29:59;13.25;;;11.20;;
43114;SDS011;28727;50.068;14.452;2023-08-17T06:32:30;13.98;;;11.77;;
43114;SDS011;28727;50.068;14.452;2023-08-17T06:35:02;14.40;;;10.27;;
43114;SDS011;28727;50.068;14.452;2023-08-17T06:37:34;13.73;;;10.07;;
43114;SDS011;28727;50.068;14.452;2023-08-17T06:40:07;13.07;;;11.10;;
43114;SDS011;28727;50.068;14.452;2023-08-17T06:42:42;11.20;;;10.10;;
43114;SDS011;28727;50.068;14.452;2023-08-17T06:45:14;12.23;;;10.20;;
43114;SDS011;28727;50.068;14.452;2023-08-17T06:47:50;12.55;;;11.25;;
43114;SDS011;28727;50.068;14.452;2023-08-17T06:50:21;11.38;;;10.18;;
43114;SDS011;28727;50.068;14.452;2023-08-17T06:52:53;12.13;;;10.75;;
43114;SDS011;28727;50.068;14.452;2023-08-17T06:55:28;11.05;;;9.95;;
43114;SDS011;28727;50.068;14.452;2023-08-17T06:58:01;15.05;;;10.32;;
43114;SDS011;28727;50.068;14.452;2023-08-17T07:00:36;11.90;;;10.70;;
43114;SDS011;28727;50.068;14.452;2023-08-17T07:03:08;12.00;;;10.40;;
43114;SDS011;28727;50.068;14.452;2023-08-17T07:05:39;11.55;;;9.38;;
43114;SDS011;28727;50.068;14.452;2023-08-17T07:08:14;10.75;;;9.27;;
43114;SDS011;28727;50.068;14.452;2023-08-17T07:10:45;11.63;;;10.05;;
43114;SDS011;28727;50.068;14.452;2023-08-17T07:13:23;9.35;;;7.90;;
43114;SDS011;28727;50.068;14.452;2023-08-17T07:15:55;11.43;;;8.00;;
43114;SDS011;28727;50.068;14.452;2023-08-17T07:18:27;9.70;;;7.47;;
43114;SDS011;28727;50.068;14.452;2023-08-17T07:20:59;13.02;;;9.10;;
43114;SDS011;28727;50.068;14.452;2023-08-17T07:23:33;10.05;;;8.40;;
43114;SDS011;28727;50.068;14.452;2023-08-17T07:26:05;14.75;;;8.10;;
43114;SDS011;28727;50.068;14.452;2023-08-17T07:28:37;10.77;;;8.82;;
43114;SDS011;28727;50.068;14.452;2023-08-17T07:31:08;9.25;;;7.15;;
43114;SDS011;28727;50.068;14.452;2023-08-17T07:33:42;8.85;;;6.10;;
43114;SDS011;28727;50.068;14.452;2023-08-17T07:36:14;8.63;;;6.60;;
43114;SDS011;28727;50.068;14.452;2023-08-17T07:38:46;11.95;;;7.60;;
43114;SDS011;28727;50.068;14.452;2023-08-17T07:41:17;9.80;;;7.75;;
43114;SDS011;28727;50.068;14.452;2023-08-17T07:43:49;7.43;;;6.68;;
43114;SDS011;28727;50.068;14.452;2023-08-17T07:46:21;10.68;;;7.57;;
43114;SDS011;28727;50.068;14.452;2023-08-17T07:48:53;7.55;;;6.60;;
43114;SDS011;28727;50.068;14.452;2023-08-17T07:51:25;12.30;;;7.18;;
43114;SDS011;28727;50.068;14.452;2023-08-17T07:53:57;9.45;;;7.10;;
43114;SDS011;28727;50.068;14.452;2023-08-17T07:56:32;12.00;;;7.60;;
43114;SDS011;28727;50.068;14.452;2023-08-17T07:59:03;10.65;;;6.82;;
43114;SDS011;28727;50.068;14.452;2023-08-17T08:01:35;8.25;;;6.90;;
43114;SDS011;28727;50.068;14.452;2023-08-17T08:04:07;9.25;;;6.13;;
43114;SDS011;28727;50.068;14.452;2023-08-17T08:06:39;9.23;;;6.43;;
43114;SDS011;28727;50.068;14.452;2023-08-17T08:09:11;8.32;;;6.43;;
43114;SDS011;28727;50.068;14.452;2023-08-17T08:11:43;8.55;;;7.30;;
43114;SDS011;28727;50.068;14.452;2023-08-17T08:14:17;13.93;;;9.15;;
43114;SDS011;28727;50.068;14.452;2023-08-17T08:16:50;10.23;;;7.20;;
43114;SDS011;28727;50.068;14.452;2023-08-17T08:19:22;8.63;;;6.80;;
43114;SDS011;28727;50.068;14.452;2023-08-17T08:21:54;9.48;;;6.93;;
43114;SDS011;28727;50.068;14.452;2023-08-17T08:24:26;11.20;;;7.80;;
43114;SDS011;28727;50.068;14.452;2023-08-17T08:27:05;13.45;;;7.22;;
43114;SDS011;28727;50.068;14.452;2023-08-17T08:29:37;12.23;;;6.90;;
43114;SDS011;28727;50.068;14.452;2023-08-17T08:32:09;11.40;;;7.50;;
43114;SDS011;28727;50.068;14.452;2023-08-17T08:34:41;10.00;;;7.32;;
43114;SDS011;28727;50.068;14.452;2023-08-17T08:37:13;11.85;;;7.20;;
43114;SDS011;28727;50.068;14.452;2023-08-17T08:39:48;12.23;;;7.35;;
43114;SDS011;28727;50.068;14.452;2023-08-17T08:42:28;8.77;;;6.95;;
43114;SDS011;28727;50.068;14.452;2023-08-17T08:45:01;9.48;;;7.97;;
43114;SDS011;28727;50.068;14.452;2023-08-17T08:47:33;11.55;;;7.22;;
43114;SDS011;28727;50.068;14.452;2023-08-17T08:50:08;9.63;;;7.20;;
43114;SDS011;28727;50.068;14.452;2023-08-17T08:52:42;9.55;;;7.57;;
43114;SDS011;28727;50.068;14.452;2023-08-17T08:55:24;9.13;;;6.78;;
43114;SDS011;28727;50.068;14.452;2023-08-17T09:00:42;11.63;;;7.90;;
43114;SDS011;28727;50.068;14.452;2023-08-17T09:03:20;9.60;;;7.15;;
43114;SDS011;28727;50.068;14.452;2023-08-17T09:05:52;12.27;;;6.90;;
43114;SDS011;28727;50.068;14.452;2023-08-17T09:08:27;7.90;;;6.93;;
43114;SDS011;28727;50.068;14.452;2023-08-17T09:11:00;10.77;;;7.55;;
43114;SDS011;28727;50.068;14.452;2023-08-17T09:13:32;10.65;;;7.22;;
43114;SDS011;28727;50.068;14.452;2023-08-17T09:16:04;10.68;;;6.82;;
43114;SDS011;28727;50.068;14.452;2023-08-17T09:18:38;8.82;;;6.72;;
43114;SDS011;28727;50.068;14.452;2023-08-17T09:21:23;11.48;;;6.55;;
43114;SDS011;28727;50.068;14.452;2023-08-17T09:23:55;9.73;;;6.85;;
43114;SDS011;28727;50.068;14.452;2023-08-17T09:26:33;11.20;;;7.13;;
43114;SDS011;28727;50.068;14.452;2023-08-17T09:29:18;11.52;;;6.93;;
43114;SDS011;28727;50.068;14.452;2023-08-17T09:31:52;10.68;;;7.63;;
43114;SDS011;28727;50.068;14.452;2023-08-17T09:34:24;12.55;;;8.55;;
43114;SDS011;28727;50.068;14.452;2023-08-17T09:37:04;13.55;;;8.15;;
43114;SDS011;28727;50.068;14.452;2023-08-17T09:39:35;13.00;;;8.23;;
43114;SDS011;28727;50.068;14.452;2023-08-17T09:42:10;10.80;;;8.00;;
43114;SDS011;28727;50.068;14.452;2023-08-17T09:44:43;9.85;;;7.63;;
43114;SDS011;28727;50.068;14.452;2023-08-17T09:47:18;9.98;;;7.35;;
43114;SDS011;28727;50.068;14.452;2023-08-17T09:49:53;8.63;;;7.75;;
43114;SDS011;28727;50.068;14.452;2023-08-17T09:52:29;10.95;;;7.47;;
43114;SDS011;28727;50.068;14.452;2023-08-17T09:55:01;10.63;;;7.20;;
43114;SDS011;28727;50.068;14.452;2023-08-17T09:57:39;8.55;;;7.18;;
43114;SDS011;28727;50.068;14.452;2023-08-17T10:00:16;9.43;;;7.32;;
43114;SDS011;28727;50.068;14.452;2023-08-17T10:02:49;8.95;;;7.32;;
43114;SDS011;28727;50.068;14.452;2023-08-17T10:05:22;11.25;;;7.50;;
43114;SDS011;28727;50.068;14.452;2023-08-17T10:07:56;9.13;;;6.73;;
43114;SDS011;28727;50.068;14.452;2023-08-17T10:10:29;11.68;;;7.55;;
43114;SDS011;28727;50.068;14.452;2023-08-17T10:13:11;9.05;;;7.43;;
43114;SDS011;28727;50.068;14.452;2023-08-17T10:16:02;9.23;;;7.15;;
43114;SDS011;28727;50.068;14.452;2023-08-17T10:24:37;11.98;;;7.13;;
43114;SDS011;28727;50.068;14.452;2023-08-17T10:27:09;11.45;;;7.13;;
43114;SDS011;28727;50.068;14.452;2023-08-17T10:29:45;8.60;;;6.82;;
43114;SDS011;28727;50.068;14.452;2023-08-17T10:32:17;7.55;;;6.75;;
43114;SDS011;28727;50.068;14.452;2023-08-17T10:34:50;9.70;;;7.72;;
43114;SDS011;28727;50.068;14.452;2023-08-17T10:37:24;9.80;;;7.13;;
43114;SDS011;28727;50.068;14.452;2023-08-17T10:39:57;7.90;;;7.18;;
43114;SDS011;28727;50.068;14.452;2023-08-17T10:42:29;10.18;;;6.85;;
43114;SDS011;28727;50.068;14.452;2023-08-17T10:50:44;7.95;;;7.15;;
43114;SDS011;28727;50.068;14.452;2023-08-17T10:53:33;8.52;;;7.47;;
43114;SDS011;28727;50.068;14.452;2023-08-17T10:56:07;9.05;;;7.30;;
43114;SDS011;28727;50.068;14.452;2023-08-17T10:58:42;10.40;;;7.47;;
43114;SDS011;28727;50.068;14.452;2023-08-17T11:01:14;9.70;;;6.77;;
43114;SDS011;28727;50.068;14.452;2023-08-17T11:04:12;7.20;;;6.53;;
43114;SDS011;28727;50.068;14.452;2023-08-17T11:07:00;11.10;;;6.82;;
43114;SDS011;28727;50.068;14.452;2023-08-17T11:09:34;9.50;;;6.57;;
43114;SDS011;28727;50.068;14.452;2023-08-17T11:12:06;10.60;;;6.53;;
43114;SDS011;28727;50.068;14.452;2023-08-17T11:14:59;8.02;;;6.82;;
43114;SDS011;28727;50.068;14.452;2023-08-17T11:17:30;8.05;;;6.80;;
43114;SDS011;28727;50.068;14.452;2023-08-17T11:20:03;10.60;;;6.97;;
43114;SDS011;28727;50.068;14.452;2023-08-17T11:22:35;12.68;;;6.88;;
43114;SDS011;28727;50.068;14.452;2023-08-17T11:25:07;10.77;;;6.82;;
43114;SDS011;28727;50.068;14.452;2023-08-17T11:27:39;7.50;;;6.70;;
43114;SDS011;28727;50.068;14.452;2023-08-17T11:30:11;10.60;;;6.85;;
43114;SDS011;28727;50.068;14.452;2023-08-17T11:32:45;12.70;;;7.03;;
43114;SDS011;28727;50.068;14.452;2023-08-17T11:35:24;8.75;;;7.07;;
43114;SDS011;28727;50.068;14.452;2023-08-17T11:37:56;7.88;;;7.07;;
43114;SDS011;28727;50.068;14.452;2023-08-17T11:40:28;7.50;;;6.50;;
43114;SDS011;28727;50.068;14.452;2023-08-17T11:43:00;7.68;;;6.70;;
43114;SDS011;28727;50.068;14.452;2023-08-17T11:45:32;9.07;;;6.60;;
43114;SDS011;28727;50.068;14.452;2023-08-17T11:48:05;9.07;;;6.57;;
43114;SDS011;28727;50.068;14.452;2023-08-17T11:50:38;12.57;;;7.35;;
43114;SDS011;28727;50.068;14.452;2023-08-17T11:53:11;8.90;;;7.40;;
43114;SDS011;28727;50.068;14.452;2023-08-17T11:55:46;11.23;;;7.23;;
43114;SDS011;28727;50.068;14.452;2023-08-17T11:58:18;9.32;;;8.35;;
43114;SDS011;28727;50.068;14.452;2023-08-17T12:01:10;9.85;;;7.18;;
43114;SDS011;28727;50.068;14.452;2023-08-17T12:03:44;10.60;;;7.45;;
43114;SDS011;28727;50.068;14.452;2023-08-17T12:06:16;11.80;;;7.23;;
43114;SDS011;28727;50.068;14.452;2023-08-17T12:08:48;10.43;;;7.07;;
43114;SDS011;28727;50.068;14.452;2023-08-17T12:11:20;9.63;;;7.18;;
43114;SDS011;28727;50.068;14.452;2023-08-17T12:13:55;10.75;;;7.32;;
43114;SDS011;28727;50.068;14.452;2023-08-17T12:16:29;13.40;;;7.88;;
43114;SDS011;28727;50.068;14.452;2023-08-17T12:19:00;8.30;;;7.47;;
43114;SDS011;28727;50.068;14.452;2023-08-17T12:21:35;10.90;;;7.97;;
43114;SDS011;28727;50.068;14.452;2023-08-17T12:24:10;9.40;;;7.38;;
43114;SDS011;28727;50.068;14.452;2023-08-17T12:26:46;10.27;;;7.40;;
43114;SDS011;28727;50.068;14.452;2023-08-17T12:29:18;12.55;;;7.43;;
43114;SDS011;28727;50.068;14.452;2023-08-17T12:31:51;8.13;;;7.30;;
43114;SDS011;28727;50.068;14.452;2023-08-17T12:34:23;11.20;;;7.57;;
43114;SDS011;28727;50.068;14.452;2023-08-17T12:36:55;8.90;;;7.28;;
43114;SDS011;28727;50.068;14.452;2023-08-17T12:39:27;8.90;;;6.70;;
43114;SDS011;28727;50.068;14.452;2023-08-17T12:42:02;10.75;;;6.78;;
43114;SDS011;28727;50.068;14.452;2023-08-17T12:44:43;9.27;;;7.25;;
43114;SDS011;28727;50.068;14.452;2023-08-17T12:47:15;11.50;;;6.60;;
43114;SDS011;28727;50.068;14.452;2023-08-17T12:49:46;6.57;;;5.35;;
43114;SDS011;28727;50.068;14.452;2023-08-17T12:52:21;6.50;;;5.50;;
43114;SDS011;28727;50.068;14.452;2023-08-17T12:54:53;8.43;;;5.65;;
43114;SDS011;28727;50.068;14.452;2023-08-17T12:57:25;7.38;;;5.80;;
43114;SDS011;28727;50.068;14.452;2023-08-17T12:59:58;10.27;;;6.27;;
43114;SDS011;28727;50.068;14.452;2023-08-17T13:02:31;8.35;;;5.60;;
43114;SDS011;28727;50.068;14.452;2023-08-17T13:05:03;6.60;;;5.03;;
43114;SDS011;28727;50.068;14.452;2023-08-17T13:07:35;13.45;;;5.82;;
43114;SDS011;28727;50.068;14.452;2023-08-17T13:10:07;10.32;;;5.57;;
43114;SDS011;28727;50.068;14.452;2023-08-17T13:12:39;11.43;;;5.25;;
43114;SDS011;28727;50.068;14.452;2023-08-17T13:15:11;8.27;;;4.97;;
43114;SDS011;28727;50.068;14.452;2023-08-17T13:17:43;7.10;;;4.95;;
43114;SDS011;28727;50.068;14.452;2023-08-17T13:20:15;6.97;;;4.53;;
43114;SDS011;28727;50.068;14.452;2023-08-17T13:22:47;5.45;;;4.68;;
43114;SDS011;28727;50.068;14.452;2023-08-17T13:25:20;4.90;;;4.20;;
43114;SDS011;28727;50.068;14.452;2023-08-17T13:27:52;8.90;;;4.90;;
43114;SDS011;28727;50.068;14.452;2023-08-17T13:30:23;5.43;;;4.10;;
43114;SDS011;28727;50.068;14.452;2023-08-17T13:32:57;7.25;;;4.50;;
43114;SDS011;28727;50.068;14.452;2023-08-17T13:35:29;7.13;;;4.70;;
43114;SDS011;28727;50.068;14.452;2023-08-17T13:38:01;5.65;;;3.90;;
43114;SDS011;28727;50.068;14.452;2023-08-17T13:40:37;6.10;;;4.60;;
43114;SDS011;28727;50.068;14.452;2023-08-17T13:43:11;11.65;;;4.35;;
43114;SDS011;28727;50.068;14.452;2023-08-17T13:45:44;7.18;;;4.63;;
43114;SDS011;28727;50.068;14.452;2023-08-17T13:48:16;7.18;;;4.68;;
43114;SDS011;28727;50.068;14.452;2023-08-17T13:50:47;8.35;;;4.65;;
43114;SDS011;28727;50.068;14.452;2023-08-17T13:53:19;5.85;;;4.65;;
43114;SDS011;28727;50.068;14.452;2023-08-17T13:55:51;5.38;;;3.90;;
43114;SDS011;28727;50.068;14.452;2023-08-17T13:58:23;6.50;;;3.90;;
43114;SDS011;28727;50.068;14.452;2023-08-17T14:00:55;6.65;;;4.10;;
43114;SDS011;28727;50.068;14.452;2023-08-17T14:03:27;4.35;;;3.80;;
43114;SDS011;28727;50.068;14.452;2023-08-17T14:06:02;6.20;;;4.22;;
43114;SDS011;28727;50.068;14.452;2023-08-17T14:08:37;7.60;;;4.00;;
43114;SDS011;28727;50.068;14.452;2023-08-17T14:11:08;6.00;;;3.80;;
43114;SDS011;28727;50.068;14.452;2023-08-17T14:13:40;6.68;;;4.55;;
43114;SDS011;28727;50.068;14.452;2023-08-17T14:16:12;5.20;;;3.92;;
43114;SDS011;28727;50.068;14.452;2023-08-17T14:18:46;5.18;;;4.10;;
43114;SDS011;28727;50.068;14.452;2023-08-17T14:21:18;6.38;;;3.50;;
43114;SDS011;28727;50.068;14.452;2023-08-17T14:23:50;6.57;;;3.92;;
43114;SDS011;28727;50.068;14.452;2023-08-17T14:26:22;4.90;;;3.60;;
43114;SDS011;28727;50.068;14.452;2023-08-17T14:28:54;6.80;;;4.00;;
43114;SDS011;28727;50.068;14.452;2023-08-17T14:31:26;5.20;;;4.35;;
43114;SDS011;28727;50.068;14.452;2023-08-17T14:33:57;4.90;;;3.75;;
43114;SDS011;28727;50.068;14.452;2023-08-17T14:36:29;6.97;;;4.50;;
43114;SDS011;28727;50.068;14.452;2023-08-17T14:39:01;5.15;;;3.92;;
43114;SDS011;28727;50.068;14.452;2023-08-17T14:41:34;5.13;;;3.53;;
43114;SDS011;28727;50.068;14.452;2023-08-17T14:44:06;7.45;;;4.28;;
43114;SDS011;28727;50.068;14.452;2023-08-17T14:46:38;8.95;;;4.18;;
43114;SDS011;28727;50.068;14.452;2023-08-17T14:49:10;6.20;;;4.03;;
43114;SDS011;28727;50.068;14.452;2023-08-17T14:51:43;6.70;;;4.03;;
43114;SDS011;28727;50.068;14.452;2023-08-17T14:54:15;5.20;;;4.00;;
43114;SDS011;28727;50.068;14.452;2023-08-17T14:56:47;5.50;;;4.40;;
43114;SDS011;28727;50.068;14.452;2023-08-17T14:59:19;6.85;;;4.55;;
43114;SDS011;28727;50.068;14.452;2023-08-17T15:01:51;8.43;;;4.32;;
43114;SDS011;28727;50.068;14.452;2023-08-17T15:04:24;7.65;;;3.72;;
43114;SDS011;28727;50.068;14.452;2023-08-17T15:06:56;7.53;;;4.40;;
43114;SDS011;28727;50.068;14.452;2023-08-17T15:09:28;6.63;;;3.90;;
43114;SDS011;28727;50.068;14.452;2023-08-17T15:12:01;10.80;;;4.50;;
43114;SDS011;28727;50.068;14.452;2023-08-17T15:14:38;8.35;;;4.57;;
43114;SDS011;28727;50.068;14.452;2023-08-17T15:17:10;7.32;;;4.57;;
43114;SDS011;28727;50.068;14.452;2023-08-17T15:22:15;6.63;;;4.70;;
43114;SDS011;28727;50.068;14.452;2023-08-17T15:24:47;7.80;;;4.70;;